createdAt,value
2018-07-12T00:01:56.917Z,16.43
2018-07-12T00:04:25.860Z,17.40
2018-07-12T00:06:54.350Z,17.43
2018-07-12T00:09:23.223Z,17.47
2018-07-12T00:11:51.958Z,16.57
2018-07-12T00:14:21.006Z,17.03
2018-07-12T00:16:50.159Z,17.43
2018-07-12T00:19:19.195Z,17.67
2018-07-12T00:21:48.035Z,16.77
2018-07-12T00:24:17.197Z,17.93
2018-07-12T00:26:46.142Z,17.17
2018-07-12T00:29:14.875Z,17.97
2018-07-12T00:31:43.506Z,16.77
2018-07-12T00:34:12.032Z,16.20
2018-07-12T00:36:41.080Z,18.17
2018-07-12T00:39:09.920Z,18.40
2018-07-12T00:41:38.865Z,17.80
2018-07-12T00:44:07.390Z,17.57
2018-07-12T00:46:35.915Z,18.63
2018-07-12T00:49:04.849Z,18.90
2018-07-12T00:51:33.079Z,17.67
2018-07-12T00:54:02.404Z,16.00
2018-07-12T00:56:31.375Z,15.77
2018-07-12T00:59:00.841Z,13.63
2018-07-12T01:01:29.993Z,13.90
2018-07-12T01:03:58.206Z,11.90
2018-07-12T01:06:26.984Z,12.47
2018-07-12T01:08:55.154Z,11.80
2018-07-12T01:11:25.027Z,11.97
2018-07-12T01:13:53.866Z,11.50
2018-07-12T01:16:22.506Z,11.87
2018-07-12T01:18:51.033Z,13.57
2018-07-12T01:21:20.290Z,12.87
2018-07-12T01:23:49.024Z,13.17
2018-07-12T01:26:17.967Z,12.67
2018-07-12T01:28:46.493Z,11.83
2018-07-12T01:31:15.213Z,11.03
2018-07-12T01:33:44.170Z,10.63
2018-07-12T01:36:13.256Z,12.43
2018-07-12T01:38:41.849Z,10.87
2018-07-12T01:41:10.374Z,11.70
2018-07-12T01:43:38.900Z,10.93
2018-07-12T01:46:08.018Z,11.27
2018-07-12T01:48:37.595Z,11.40
2018-07-12T01:51:06.880Z,10.60
2018-07-12T01:53:35.393Z,11.30
2018-07-12T01:56:03.899Z,12.03
2018-07-12T01:58:32.426Z,11.30
2018-07-12T02:01:01.703Z,11.33
2018-07-12T02:03:30.753Z,11.57
2018-07-12T02:06:00.194Z,11.07
2018-07-12T02:08:30.007Z,11.73
2018-07-12T02:10:59.044Z,11.03
2018-07-12T02:13:28.311Z,10.47
2018-07-12T02:15:57.973Z,10.63
2018-07-12T02:18:27.858Z,12.07
2018-07-12T02:20:56.383Z,11.27
2018-07-12T02:23:25.128Z,11.80
2018-07-12T02:25:54.165Z,12.03
2018-07-12T02:28:22.878Z,10.90
2018-07-12T02:30:52.134Z,11.30
2018-07-12T02:33:21.206Z,11.30
2018-07-12T02:35:49.606Z,12.33
2018-07-12T02:38:18.794Z,12.97
2018-07-12T02:40:47.826Z,11.60
2018-07-12T02:43:16.991Z,13.17
2018-07-12T02:45:46.056Z,13.20
2018-07-12T02:48:15.088Z,13.40
2018-07-12T02:50:43.578Z,13.60
2018-07-12T02:53:12.560Z,14.77
2018-07-12T02:55:41.294Z,13.60
2018-07-12T02:58:10.026Z,13.67
2018-07-12T03:00:38.656Z,13.33
2018-07-12T03:03:07.907Z,13.63
2018-07-12T03:05:37.158Z,15.93
2018-07-12T03:08:05.696Z,14.93
2018-07-12T03:10:35.371Z,13.83
2018-07-12T03:13:03.961Z,16.40
2018-07-12T03:15:32.944Z,14.93
2018-07-12T03:18:01.538Z,15.90
2018-07-12T03:20:30.830Z,14.83
2018-07-12T03:22:59.252Z,16.20
2018-07-12T03:25:27.950Z,14.20
2018-07-12T03:27:58.386Z,14.70
2018-07-12T03:30:26.919Z,17.23
2018-07-12T03:32:55.849Z,16.10
2018-07-12T03:35:25.842Z,13.70
2018-07-12T03:37:54.167Z,15.87
2018-07-12T03:40:22.699Z,14.33
2018-07-12T03:42:51.834Z,16.50
2018-07-12T03:45:20.892Z,14.97
2018-07-12T03:47:50.150Z,19.40
2018-07-12T03:50:19.406Z,16.50
2018-07-12T03:52:49.075Z,15.70
2018-07-12T03:55:18.119Z,16.80
2018-07-12T03:57:47.285Z,15.17
2018-07-12T04:00:16.330Z,17.33
2018-07-12T04:02:44.855Z,16.47
2018-07-12T04:05:13.903Z,17.27
2018-07-12T04:07:43.055Z,15.07
2018-07-12T04:10:11.759Z,16.73
2018-07-12T04:12:41.674Z,15.63
2018-07-12T04:15:10.616Z,17.77
2018-07-12T04:17:39.561Z,17.60
2018-07-12T04:20:08.597Z,15.70
2018-07-12T04:22:37.962Z,18.10
2018-07-12T04:25:06.902Z,14.77
2018-07-12T04:27:36.054Z,17.70
2018-07-12T04:30:05.119Z,16.63
2018-07-12T04:32:34.580Z,17.93
2018-07-12T04:35:03.304Z,16.40
2018-07-12T04:37:31.945Z,18.73
2018-07-12T04:40:00.433Z,18.73
2018-07-12T04:42:28.996Z,22.67
2018-07-12T04:44:57.940Z,18.63
2018-07-12T04:47:27.186Z,19.17
2018-07-12T04:49:55.826Z,20.27
2018-07-12T04:52:24.770Z,19.60
2018-07-12T04:54:53.754Z,17.13
2018-07-12T04:57:22.755Z,17.93
2018-07-12T04:59:52.122Z,15.47
2018-07-12T05:02:20.753Z,17.33
2018-07-12T05:04:49.279Z,15.87
2018-07-12T05:07:18.535Z,15.87
2018-07-12T05:09:47.584Z,16.20
2018-07-12T05:12:16.630Z,16.03
2018-07-12T05:14:45.156Z,15.37
2018-07-12T05:17:14.276Z,16.40
2018-07-12T05:19:42.862Z,15.23
2018-07-12T05:22:12.092Z,15.30
2018-07-12T05:24:41.963Z,15.57
2018-07-12T05:27:11.128Z,16.23
2018-07-12T05:29:41.078Z,15.57
2018-07-12T05:32:10.671Z,16.90
2018-07-12T05:34:39.621Z,16.20
2018-07-12T05:37:09.186Z,17.47
2018-07-12T05:39:38.711Z,14.80
2018-07-12T05:42:10.493Z,14.90
2018-07-12T05:44:40.208Z,15.53
2018-07-12T05:47:10.196Z,16.37
2018-07-12T05:49:40.044Z,15.60
2018-07-12T05:52:11.359Z,15.80
2018-07-12T05:54:42.008Z,14.30
2018-07-12T05:57:12.838Z,15.23
2018-07-12T05:59:43.426Z,15.20
2018-07-12T06:02:21.059Z,12.13
2018-07-12T06:04:51.038Z,13.63
2018-07-12T06:07:27.561Z,12.43
2018-07-12T06:09:57.186Z,13.00
2018-07-12T06:12:27.274Z,13.03
2018-07-12T06:14:57.742Z,12.07
2018-07-12T06:17:28.934Z,12.40
2018-07-12T06:19:58.841Z,12.90
2018-07-12T06:22:29.006Z,13.03
2018-07-12T06:24:58.921Z,13.10
2018-07-12T06:27:29.462Z,13.47
2018-07-12T06:30:00.225Z,13.73
2018-07-12T06:32:29.973Z,13.77
2018-07-12T06:35:00.429Z,14.17
2018-07-12T06:37:30.219Z,13.27
2018-07-12T06:40:00.488Z,12.43
2018-07-12T06:42:29.660Z,12.63
2018-07-12T06:44:59.451Z,12.70
2018-07-12T06:47:28.985Z,13.73
2018-07-12T06:49:58.905Z,13.40
2018-07-12T06:52:29.582Z,13.67
2018-07-12T06:54:59.110Z,12.30
2018-07-12T06:57:29.778Z,12.80
2018-07-12T07:00:01.067Z,13.23
2018-07-12T07:02:31.631Z,14.43
2018-07-12T07:05:01.869Z,13.87
2018-07-12T07:07:32.414Z,14.67
2018-07-12T07:10:01.902Z,14.97
2018-07-12T07:12:31.054Z,15.00
2018-07-12T07:15:00.942Z,14.47
2018-07-12T07:17:31.462Z,14.90
2018-07-12T07:20:00.803Z,15.20
2018-07-12T07:22:30.838Z,14.30
2018-07-12T07:25:01.614Z,14.17
2018-07-12T07:27:32.107Z,14.90
2018-07-12T07:30:02.265Z,16.40
2018-07-12T07:32:32.150Z,16.67
2018-07-12T07:35:03.410Z,16.27
2018-07-12T07:37:33.902Z,16.50
2018-07-12T07:40:04.867Z,16.70
2018-07-12T07:42:34.535Z,15.50
2018-07-12T07:45:03.258Z,16.90
2018-07-12T07:47:32.597Z,16.00
2018-07-12T07:50:02.038Z,15.10
2018-07-12T07:52:31.845Z,17.63
2018-07-12T07:55:02.583Z,17.73
2018-07-12T07:57:32.655Z,18.53
2018-07-12T08:00:02.819Z,18.80
2018-07-12T08:02:34.211Z,19.07
2018-07-12T08:05:04.186Z,15.73
2018-07-12T08:07:35.312Z,13.80
2018-07-12T08:10:06.031Z,13.57
2018-07-12T08:12:35.926Z,14.37
2018-07-12T08:15:07.065Z,13.27
2018-07-12T08:17:38.590Z,13.00
2018-07-12T08:20:08.325Z,14.40
2018-07-12T08:22:38.758Z,16.23
2018-07-12T08:25:08.230Z,18.50
2018-07-12T08:27:44.627Z,17.67
2018-07-12T08:30:14.198Z,19.87
2018-07-12T08:32:44.146Z,19.87
2018-07-12T08:35:13.806Z,22.53
2018-07-12T08:37:44.711Z,21.23
2018-07-12T08:40:15.726Z,18.40
2018-07-12T08:42:45.755Z,18.07
2018-07-12T08:45:16.840Z,19.70
2018-07-12T08:47:47.664Z,17.40
2018-07-12T08:50:18.433Z,16.83
2018-07-12T08:52:48.236Z,19.83
2018-07-12T08:55:18.361Z,20.57
2018-07-12T08:57:48.651Z,18.17
2018-07-12T09:00:17.752Z,14.70
2018-07-12T09:02:47.952Z,15.97
2018-07-12T09:05:19.107Z,15.10
2018-07-12T09:07:49.154Z,13.30
2018-07-12T09:10:18.137Z,12.10
2018-07-12T09:12:47.846Z,12.40
2018-07-12T09:15:17.010Z,11.93
2018-07-12T09:17:46.893Z,11.87
2018-07-12T09:20:17.851Z,11.70
2018-07-12T09:22:47.958Z,11.30
2018-07-12T09:25:17.733Z,13.07
2018-07-12T09:27:47.793Z,12.33
2018-07-12T09:30:18.713Z,12.17
2018-07-12T09:32:49.331Z,10.83
2018-07-12T09:35:23.690Z,15.17
2018-07-12T09:37:53.282Z,13.57
2018-07-12T09:40:22.961Z,13.93
2018-07-12T09:42:53.172Z,14.50
2018-07-12T09:45:23.618Z,14.43
2018-07-12T09:47:53.046Z,15.10
2018-07-12T09:50:24.042Z,18.97
2018-07-12T09:52:54.155Z,20.10
2018-07-12T09:55:24.434Z,21.77
2018-07-12T09:58:05.606Z,24.77
2018-07-12T10:00:41.327Z,22.30
2018-07-12T10:03:18.824Z,20.73
2018-07-12T10:05:54.881Z,19.23
2018-07-12T10:09:31.206Z,18.33
2018-07-12T10:12:06.718Z,17.47
2018-07-12T10:14:42.113Z,19.20
2018-07-12T10:17:18.091Z,17.10
2018-07-12T10:19:47.843Z,17.60
2018-07-12T10:22:18.798Z,16.97
2018-07-12T10:24:48.670Z,16.83
2018-07-12T10:27:19.314Z,16.43
2018-07-12T10:29:49.749Z,16.33
2018-07-12T10:32:21.206Z,17.10
2018-07-12T10:34:51.465Z,16.87
2018-07-12T10:37:21.757Z,14.60
2018-07-12T10:39:52.149Z,14.50
2018-07-12T10:42:21.940Z,14.73
2018-07-12T10:44:51.174Z,16.70
2018-07-12T10:47:21.591Z,14.33
2018-07-12T10:49:50.858Z,13.70
2018-07-12T10:52:20.791Z,13.53
2018-07-12T10:54:50.214Z,14.03
2018-07-12T10:57:20.650Z,13.37
2018-07-12T10:59:51.672Z,12.33
2018-07-12T11:02:21.948Z,11.73
2018-07-12T11:04:52.942Z,14.23
2018-07-12T11:07:23.531Z,13.73
2018-07-12T11:09:53.546Z,11.67
2018-07-12T11:12:23.158Z,12.00
2018-07-12T11:14:53.006Z,12.00
2018-07-12T11:17:22.470Z,11.87
2018-07-12T11:19:52.734Z,10.80
2018-07-12T11:22:23.212Z,11.20
2018-07-12T11:24:54.037Z,11.07
2018-07-12T11:27:25.875Z,12.70
2018-07-12T11:29:56.830Z,11.73
2018-07-12T11:32:26.783Z,12.10
2018-07-12T11:34:56.866Z,12.50
2018-07-12T11:37:28.864Z,11.97
2018-07-12T11:40:00.024Z,10.30
2018-07-12T11:42:29.902Z,9.83
2018-07-12T11:44:59.982Z,9.13
2018-07-12T11:47:30.758Z,9.23
2018-07-12T11:50:00.955Z,9.17
2018-07-12T11:52:30.784Z,8.30
2018-07-12T11:55:00.978Z,8.30
2018-07-12T11:57:30.925Z,8.37
2018-07-12T12:00:00.827Z,7.43
2018-07-12T12:02:31.197Z,7.43
2018-07-12T12:05:01.016Z,7.03
2018-07-12T12:07:30.893Z,7.93
2018-07-12T12:10:00.502Z,7.77
2018-07-12T12:12:31.220Z,9.73
2018-07-12T12:15:01.604Z,10.03
2018-07-12T12:17:31.919Z,9.40
2018-07-12T12:20:02.322Z,9.30
2018-07-12T12:22:32.990Z,8.63
2018-07-12T12:25:03.745Z,8.17
2018-07-12T12:27:34.593Z,8.03
2018-07-12T12:30:05.302Z,8.10
2018-07-12T12:32:36.011Z,8.93
2018-07-12T12:35:05.496Z,9.10
2018-07-12T12:37:34.997Z,9.63
2018-07-12T12:40:04.954Z,8.77
2018-07-12T12:42:35.152Z,8.37
2018-07-12T12:45:05.453Z,7.00
2018-07-12T12:47:36.340Z,6.40
2018-07-12T12:50:07.619Z,6.20
2018-07-12T12:52:37.142Z,6.27
2018-07-12T12:55:07.194Z,6.23
2018-07-12T12:57:36.858Z,6.47
2018-07-12T13:00:07.050Z,6.00
2018-07-12T13:02:36.935Z,4.70
2018-07-12T13:05:07.153Z,4.80
2018-07-12T13:07:37.545Z,6.40
2018-07-12T13:10:08.818Z,5.63
2018-07-12T13:12:39.198Z,6.10
2018-07-12T13:15:09.173Z,5.53
2018-07-12T13:17:39.581Z,5.80
2018-07-12T13:20:09.814Z,5.50
2018-07-12T13:22:39.875Z,6.50
2018-07-12T13:25:09.961Z,5.50
2018-07-12T13:27:40.251Z,5.33
2018-07-12T13:30:10.550Z,5.50
2018-07-12T13:32:41.461Z,7.97
2018-07-12T13:35:11.203Z,8.03
2018-07-12T13:37:40.632Z,7.00
2018-07-12T13:40:10.828Z,8.50
2018-07-12T13:42:42.010Z,8.00
2018-07-12T13:45:12.058Z,6.47
2018-07-12T13:47:41.942Z,6.33
2018-07-12T13:50:11.790Z,5.53
2018-07-12T13:52:40.918Z,5.53
2018-07-12T13:55:11.069Z,5.43
2018-07-12T13:57:42.091Z,5.60
2018-07-12T14:00:12.494Z,5.33
2018-07-12T14:02:42.846Z,6.17
2018-07-12T14:05:13.737Z,6.17
2018-07-12T14:07:44.734Z,6.10
2018-07-12T14:10:15.870Z,5.97
2018-07-12T14:12:46.826Z,6.00
2018-07-12T14:15:16.478Z,5.43
2018-07-12T14:17:47.114Z,6.23
2018-07-12T14:20:16.798Z,5.17
2018-07-12T14:22:46.746Z,5.10
2018-07-12T14:25:17.506Z,4.63
2018-07-12T14:27:48.491Z,5.40
2018-07-12T14:30:18.677Z,4.57
2018-07-12T14:32:48.305Z,4.70
2018-07-12T14:35:17.769Z,4.73
2018-07-12T14:37:48.454Z,4.30
2018-07-12T14:40:17.969Z,3.20
2018-07-12T14:42:47.631Z,3.13
2018-07-12T14:45:17.827Z,3.70
2018-07-12T14:47:48.342Z,3.63
2018-07-12T14:50:18.326Z,3.50
2018-07-12T14:52:47.986Z,3.90
2018-07-12T14:55:17.732Z,3.27
2018-07-12T14:57:48.546Z,3.13
2018-07-12T15:00:18.173Z,3.77
2018-07-12T15:02:49.060Z,3.50
2018-07-12T15:05:18.985Z,3.23
2018-07-12T15:07:48.401Z,4.13
2018-07-12T15:10:17.681Z,3.20
2018-07-12T15:12:48.339Z,3.40
2018-07-12T15:15:19.437Z,3.77
2018-07-12T15:17:49.369Z,3.80
2018-07-12T15:20:18.786Z,3.23
2018-07-12T15:22:49.706Z,3.47
2018-07-12T15:25:21.136Z,3.33
2018-07-12T15:27:51.537Z,3.60
2018-07-12T15:30:21.654Z,3.30
2018-07-12T15:32:51.705Z,3.53
2018-07-12T15:35:21.006Z,3.20
2018-07-12T15:37:52.339Z,3.33
2018-07-12T15:40:22.438Z,3.20
2018-07-12T15:42:53.011Z,3.23
2018-07-12T15:45:22.896Z,3.77
2018-07-12T15:47:54.194Z,3.80
2018-07-12T15:50:26.811Z,3.70
2018-07-12T15:52:57.108Z,3.50
2018-07-12T15:55:27.063Z,3.10
2018-07-12T15:57:56.984Z,3.40
2018-07-12T16:00:27.438Z,3.90
2018-07-12T16:02:59.454Z,3.70
2018-07-12T16:05:29.674Z,3.70
2018-07-12T16:07:59.827Z,3.90
2018-07-12T16:10:30.341Z,3.40
2018-07-12T16:13:01.540Z,3.53
2018-07-12T16:15:32.375Z,3.67
2018-07-12T16:18:02.246Z,3.80
2018-07-12T16:20:32.487Z,3.83
2018-07-12T16:23:03.095Z,3.40
2018-07-12T16:25:33.331Z,3.57
2018-07-12T16:28:03.036Z,3.10
2018-07-12T16:30:33.478Z,2.90
2018-07-12T16:33:04.370Z,3.20
2018-07-12T16:35:34.219Z,3.27
2018-07-12T16:38:05.435Z,3.33
2018-07-12T16:40:35.855Z,3.47
2018-07-12T16:43:05.890Z,3.17
2018-07-12T16:45:36.042Z,3.33
2018-07-12T16:48:06.422Z,3.60
2018-07-12T16:50:36.805Z,3.30
2018-07-12T16:53:06.709Z,3.80
2018-07-12T16:55:36.957Z,3.77
2018-07-12T16:58:07.442Z,3.70
2018-07-12T17:00:39.008Z,3.90
2018-07-12T17:03:08.863Z,3.67
2018-07-12T17:05:39.386Z,4.07
2018-07-12T17:08:08.529Z,3.60
2018-07-12T17:10:38.673Z,4.10
2018-07-12T17:13:07.869Z,4.10
2018-07-12T17:15:37.722Z,4.33
2018-07-12T17:18:08.363Z,4.43
2018-07-12T17:20:38.006Z,4.37
2018-07-12T17:23:08.678Z,4.10
2018-07-12T17:25:39.278Z,4.10
2018-07-12T17:28:09.098Z,4.23
2018-07-12T17:30:38.722Z,4.67
2018-07-12T17:33:09.629Z,5.33
2018-07-12T17:35:41.239Z,5.10
2018-07-12T17:38:10.783Z,4.67
2018-07-12T17:40:40.850Z,4.57
2018-07-12T17:43:11.442Z,4.30
2018-07-12T17:45:42.728Z,4.80
2018-07-12T17:48:12.362Z,4.50
2018-07-12T17:50:41.443Z,4.33
2018-07-12T17:53:11.372Z,4.90
2018-07-12T17:55:41.460Z,4.00
2018-07-12T17:58:11.915Z,4.17
2018-07-12T18:00:41.923Z,4.37
2018-07-12T18:03:13.395Z,4.20
2018-07-12T18:05:44.278Z,4.43
2018-07-12T18:08:14.790Z,3.93
2018-07-12T18:10:43.978Z,4.13
2018-07-12T18:13:15.071Z,3.90
2018-07-12T18:15:45.312Z,4.00
2018-07-12T18:18:16.283Z,4.70
2018-07-12T18:20:46.858Z,4.80
2018-07-12T18:23:17.146Z,5.37
2018-07-12T18:25:47.775Z,5.37
2018-07-12T18:28:18.270Z,5.33
2018-07-12T18:30:48.490Z,5.03
2018-07-12T18:33:19.632Z,4.87
2018-07-12T18:35:50.178Z,5.00
2018-07-12T18:38:20.447Z,4.70
2018-07-12T18:40:50.457Z,4.47
2018-07-12T18:43:20.346Z,4.13
2018-07-12T18:45:51.676Z,4.43
2018-07-12T18:48:21.340Z,4.50
2018-07-12T18:50:50.925Z,5.33
2018-07-12T18:53:21.782Z,4.67
2018-07-12T18:55:51.358Z,4.87
2018-07-12T18:58:21.170Z,4.47
2018-07-12T19:00:50.759Z,4.27
2018-07-12T19:03:23.143Z,4.43
2018-07-12T19:05:53.019Z,4.43
2018-07-12T19:08:23.362Z,5.07
2018-07-12T19:10:52.570Z,4.60
2018-07-12T19:13:22.789Z,5.00
2018-07-12T19:15:52.694Z,5.60
2018-07-12T19:18:22.790Z,6.30
2018-07-12T19:20:53.116Z,5.30
2018-07-12T19:23:22.778Z,4.70
2018-07-12T19:25:53.758Z,4.90
2018-07-12T19:28:23.134Z,4.40
2018-07-12T19:30:52.638Z,4.27
2018-07-12T19:33:22.866Z,3.83
2018-07-12T19:35:53.654Z,4.63
2018-07-12T19:38:24.981Z,4.27
2018-07-12T19:40:55.154Z,4.60
2018-07-12T19:43:24.717Z,4.03
2018-07-12T19:45:54.519Z,4.53
2018-07-12T19:48:26.216Z,4.40
2018-07-12T19:50:55.868Z,4.60
2018-07-12T19:53:26.838Z,4.10
2018-07-12T19:55:57.562Z,4.30
2018-07-12T19:58:28.818Z,4.33
2018-07-12T20:00:58.770Z,4.30
2018-07-12T20:03:28.746Z,4.70
2018-07-12T20:05:58.458Z,4.90
2018-07-12T20:08:28.534Z,4.20
2018-07-12T20:10:58.710Z,6.17
2018-07-12T20:13:28.971Z,5.30
2018-07-12T20:15:59.271Z,5.67
2018-07-12T20:18:29.846Z,8.63
2018-07-12T20:20:59.358Z,4.20
2018-07-12T20:23:29.227Z,5.13
2018-07-12T20:25:59.690Z,5.17
2018-07-12T20:28:29.350Z,3.87
2018-07-12T20:30:59.176Z,4.73
2018-07-12T20:33:28.382Z,5.20
2018-07-12T20:35:58.102Z,4.90
2018-07-12T20:38:27.590Z,4.67
2018-07-12T20:40:57.588Z,4.60
2018-07-12T20:43:27.056Z,4.43
2018-07-12T20:45:57.165Z,4.97
2018-07-12T20:48:26.718Z,4.90
2018-07-12T20:50:56.762Z,4.77
2018-07-12T20:53:27.014Z,4.67
2018-07-12T20:55:56.699Z,5.13
2018-07-12T20:58:26.939Z,4.80
2018-07-12T21:00:57.579Z,5.00
2018-07-12T21:03:29.605Z,4.53
2018-07-12T21:05:59.446Z,5.20
2018-07-12T21:08:28.897Z,5.73
2018-07-12T21:10:58.804Z,5.37
2018-07-12T21:13:29.442Z,5.07
2018-07-12T21:16:00.306Z,5.37
2018-07-12T21:18:31.571Z,5.03
2018-07-12T21:21:01.354Z,6.03
2018-07-12T21:23:31.722Z,5.60
2018-07-12T21:26:01.619Z,6.27
2018-07-12T21:28:31.302Z,8.10
2018-07-12T21:31:01.841Z,7.17
2018-07-12T21:33:31.693Z,6.63
2018-07-12T21:36:01.202Z,5.80
2018-07-12T21:38:32.013Z,4.83
2018-07-12T21:41:03.535Z,4.80
2018-07-12T21:43:35.190Z,5.30
2018-07-12T21:46:05.706Z,5.63
2018-07-12T21:48:35.517Z,5.63
2018-07-12T21:51:04.634Z,4.93
2018-07-12T21:53:34.762Z,5.57
2018-07-12T21:56:05.623Z,5.70
2018-07-12T21:58:35.400Z,5.80
2018-07-12T22:01:05.352Z,5.40
2018-07-12T22:03:35.515Z,5.23
2018-07-12T22:06:05.074Z,5.30
2018-07-12T22:08:34.871Z,5.07
2018-07-12T22:11:06.973Z,5.60
2018-07-12T22:13:38.123Z,5.00
2018-07-12T22:16:07.227Z,5.57
2018-07-12T22:18:38.242Z,5.57
2018-07-12T22:21:08.429Z,5.30
2018-07-12T22:23:38.618Z,4.57
2018-07-12T22:26:09.235Z,5.10
2018-07-12T22:28:38.374Z,5.37
2018-07-12T22:31:08.953Z,5.80
2018-07-12T22:33:38.707Z,6.03
2018-07-12T22:36:09.458Z,5.77
2018-07-12T22:38:39.317Z,5.50
2018-07-12T22:41:10.406Z,4.67
2018-07-12T22:43:41.090Z,4.63
2018-07-12T22:46:12.075Z,5.30
2018-07-12T22:48:42.678Z,4.60
2018-07-12T22:51:13.429Z,4.80
2018-07-12T22:53:42.878Z,4.50
2018-07-12T22:56:12.490Z,4.50
2018-07-12T22:58:43.335Z,4.47
2018-07-12T23:01:13.846Z,4.57
2018-07-12T23:03:44.098Z,3.97
2018-07-12T23:06:14.610Z,4.40
2018-07-12T23:08:44.551Z,4.83
2018-07-12T23:11:15.330Z,4.57
2018-07-12T23:13:45.603Z,4.47
2018-07-12T23:16:15.818Z,4.23
2018-07-12T23:18:45.854Z,4.83
2018-07-12T23:21:16.286Z,4.53
2018-07-12T23:23:45.579Z,4.97
2018-07-12T23:26:15.083Z,4.63
2018-07-12T23:28:45.098Z,5.07
2018-07-12T23:31:14.413Z,4.43
2018-07-12T23:33:44.943Z,5.30
2018-07-12T23:36:14.958Z,5.17
2018-07-12T23:38:44.930Z,5.67
2018-07-12T23:41:15.390Z,4.97
2018-07-12T23:43:45.475Z,5.17
2018-07-12T23:46:15.358Z,5.10
2018-07-12T23:48:45.699Z,5.57
2018-07-12T23:51:15.484Z,5.80
2018-07-12T23:53:45.442Z,5.10
2018-07-12T23:56:15.283Z,6.43
2018-07-12T23:58:44.493Z,5.77
